createdAt,value
2023-06-27T00:02:09.620Z,94.54
2023-06-27T00:03:09.489Z,94.54
2023-06-27T00:04:09.553Z,94.93
2023-06-27T00:05:09.300Z,94.45
2023-06-27T00:06:09.220Z,94.64
2023-06-27T00:07:09.246Z,94.54
2023-06-27T00:08:09.084Z,94.17
2023-06-27T00:09:08.995Z,94.64
2023-06-27T00:10:08.948Z,95.21
2023-06-27T00:11:08.847Z,94.26
2023-06-27T00:12:08.792Z,95.03
2023-06-27T00:13:08.720Z,94.84
2023-06-27T00:14:08.649Z,94.84
2023-06-27T00:15:08.552Z,95.03
2023-06-27T00:16:08.459Z,95.21
2023-06-27T00:17:08.387Z,95.21
2023-06-27T00:18:08.454Z,95.12
2023-06-27T00:19:08.435Z,94.84
2023-06-27T00:20:08.159Z,95.41
2023-06-27T00:21:08.099Z,96.08
2023-06-27T00:22:08.007Z,96.08
2023-06-27T00:23:08.383Z,96.47
2023-06-27T00:24:07.886Z,96.08
2023-06-27T00:26:07.742Z,95.60
2023-06-27T00:27:07.709Z,96.27
2023-06-27T00:28:07.551Z,96.27
2023-06-27T00:29:07.525Z,96.18
2023-06-27T00:30:07.397Z,96.37
2023-06-27T00:31:07.385Z,96.08
2023-06-27T00:32:07.256Z,96.47
2023-06-27T00:33:07.177Z,97.90
2023-06-27T00:34:07.137Z,97.04
2023-06-27T00:35:07.027Z,96.66
2023-06-27T00:36:06.991Z,96.94
2023-06-27T00:37:06.905Z,97.14
2023-06-27T00:38:06.828Z,97.81
2023-06-27T00:39:09.335Z,97.61
2023-06-27T00:40:06.638Z,97.90
2023-06-27T00:41:06.591Z,98.00
2023-06-27T00:42:06.689Z,97.14
2023-06-27T00:43:06.409Z,96.56
2023-06-27T00:44:06.328Z,97.04
2023-06-27T00:45:06.720Z,96.75
2023-06-27T00:46:06.177Z,96.94
2023-06-27T00:47:06.102Z,96.94
2023-06-27T00:48:06.074Z,96.18
2023-06-27T00:49:05.984Z,96.66
2023-06-27T00:50:05.871Z,96.27
2023-06-27T00:51:05.803Z,96.08
2023-06-27T00:52:05.734Z,96.94
2023-06-27T00:53:05.675Z,96.27
2023-06-27T00:54:05.579Z,96.37
2023-06-27T00:55:05.744Z,95.98
2023-06-27T00:56:05.414Z,96.99
2023-06-27T00:57:05.705Z,96.89
2023-06-27T00:58:05.315Z,96.61
2023-06-27T00:59:05.186Z,96.80
2023-06-27T01:00:05.148Z,97.09
2023-06-27T01:01:05.071Z,97.09
2023-06-27T01:02:04.972Z,96.99
2023-06-27T01:03:05.017Z,97.56
2023-06-27T01:04:04.874Z,97.85
2023-06-27T01:05:04.767Z,96.99
2023-06-27T01:06:04.656Z,96.99
2023-06-27T01:08:04.558Z,97.18
2023-06-27T01:09:04.426Z,96.42
2023-06-27T01:10:04.549Z,97.66
2023-06-27T01:11:04.279Z,98.19
2023-06-27T01:12:04.211Z,98.47
2023-06-27T01:13:04.168Z,98.19
2023-06-27T01:14:04.048Z,98.10
2023-06-27T01:15:03.968Z,98.28
2023-06-27T01:16:03.897Z,97.52
2023-06-27T01:17:03.834Z,97.52
2023-06-27T01:18:04.256Z,98.28
2023-06-27T01:19:03.669Z,98.19
2023-06-27T01:20:03.622Z,98.33
2023-06-27T01:21:03.852Z,98.71
2023-06-27T01:22:03.433Z,99.10
2023-06-27T01:23:04.013Z,99.19
2023-06-27T01:45:23.679Z,99.99
2023-06-27T01:46:23.871Z,99.99
2023-06-27T01:47:23.500Z,99.99
2023-06-27T01:48:23.420Z,99.99
2023-06-27T01:49:23.385Z,99.99
2023-06-27T01:50:23.509Z,99.99
2023-06-27T01:51:23.389Z,99.99
2023-06-27T01:53:23.281Z,99.99
2023-06-27T02:00:22.730Z,99.99
2023-06-27T02:07:22.052Z,99.99
2023-06-27T02:08:21.878Z,99.99
2023-06-27T02:10:21.767Z,99.99
2023-06-27T02:11:21.672Z,99.99
2023-06-27T02:12:21.792Z,99.99
2023-06-27T02:13:21.517Z,99.99
2023-06-27T02:14:21.840Z,99.99
2023-06-27T02:16:21.290Z,99.99
2023-06-27T02:24:20.643Z,99.99
2023-06-27T02:25:23.776Z,99.99
2023-06-27T02:26:20.477Z,99.99
2023-06-27T02:27:20.391Z,99.99
2023-06-27T02:28:20.307Z,99.99
2023-06-27T02:29:20.227Z,99.99
2023-06-27T02:30:20.157Z,99.99
2023-06-27T02:31:20.195Z,99.99
2023-06-27T02:32:19.993Z,99.99
2023-06-27T02:34:07.419Z,99.99
2023-06-27T02:35:07.338Z,99.99
2023-06-27T02:36:07.243Z,99.99
2023-06-27T02:37:07.169Z,99.99
2023-06-27T02:38:07.088Z,99.99
2023-06-27T02:39:07.015Z,99.99
2023-06-27T02:40:06.955Z,99.99
2023-06-27T02:41:07.057Z,99.99
2023-06-27T02:42:06.788Z,99.99
2023-06-27T02:43:06.702Z,99.99
2023-06-27T02:44:06.622Z,99.99
2023-06-27T02:45:06.551Z,99.99
2023-06-27T02:46:06.561Z,99.99
2023-06-27T02:47:06.589Z,99.99
2023-06-27T02:48:06.319Z,99.99
2023-06-27T02:49:06.226Z,99.99
2023-06-27T02:50:06.147Z,99.99
2023-06-27T02:51:08.693Z,99.99
2023-06-27T02:52:05.989Z,99.99
2023-06-27T02:53:05.932Z,99.99
2023-06-27T02:54:05.832Z,99.99
2023-06-27T02:55:05.755Z,99.99
2023-06-27T02:56:05.704Z,99.99
2023-06-27T02:57:05.999Z,99.99
2023-06-27T02:58:05.524Z,99.99
2023-06-27T02:59:05.644Z,99.99
2023-06-27T03:00:05.357Z,99.99
2023-06-27T03:01:05.282Z,99.99
2023-06-27T03:02:05.249Z,99.99
2023-06-27T03:03:05.244Z,99.99
2023-06-27T03:04:18.520Z,99.99
2023-06-27T03:05:05.178Z,99.99
2023-06-27T03:06:04.984Z,99.99
2023-06-27T03:07:04.860Z,99.99
2023-06-27T03:08:04.742Z,99.99
2023-06-27T03:09:04.660Z,99.99
2023-06-27T03:10:04.576Z,99.99
2023-06-27T03:11:04.506Z,99.99
2023-06-27T03:12:04.437Z,99.99
2023-06-27T03:13:04.340Z,99.99
2023-06-27T03:14:04.269Z,99.99
2023-06-27T03:15:04.185Z,99.99
2023-06-27T03:16:04.102Z,99.99
2023-06-27T03:17:04.127Z,99.99
2023-06-27T03:18:03.989Z,99.99
2023-06-27T03:19:03.873Z,99.99
2023-06-27T03:20:03.836Z,99.99
2023-06-27T03:21:03.758Z,99.99
2023-06-27T03:22:03.635Z,99.99
2023-06-27T03:23:03.556Z,99.99
2023-06-27T03:24:03.475Z,99.99
2023-06-27T03:25:03.407Z,99.99
2023-06-27T03:26:03.318Z,99.99
2023-06-27T03:27:03.240Z,99.99
2023-06-27T03:28:45.657Z,99.99
2023-06-27T03:29:45.568Z,99.99
2023-06-27T03:30:45.486Z,99.99
2023-06-27T03:31:45.466Z,99.99
2023-06-27T03:32:45.363Z,99.99
2023-06-27T03:33:45.251Z,99.99
2023-06-27T03:34:45.172Z,99.99
2023-06-27T03:35:45.096Z,99.99
2023-06-27T03:36:45.018Z,99.99
2023-06-27T03:37:44.940Z,99.99
2023-06-27T03:38:45.104Z,99.99
2023-06-27T03:39:44.780Z,99.99
2023-06-27T03:40:44.703Z,99.99
2023-06-27T03:41:44.623Z,99.99
2023-06-27T03:42:44.544Z,99.99
2023-06-27T03:43:44.520Z,99.99
2023-06-27T03:44:44.409Z,99.99
2023-06-27T03:45:44.309Z,99.99
2023-06-27T03:46:44.227Z,99.99
2023-06-27T03:47:44.294Z,99.99
2023-06-27T03:48:44.092Z,99.99
2023-06-27T03:49:43.993Z,99.99
2023-06-27T03:50:44.547Z,99.99
2023-06-27T03:51:43.834Z,99.99
2023-06-27T03:52:44.136Z,99.99
2023-06-27T03:53:44.182Z,99.99
2023-06-27T03:54:46.477Z,99.99
2023-06-27T03:55:43.780Z,99.99
2023-06-27T03:56:43.447Z,99.99
2023-06-27T03:57:43.366Z,99.99
2023-06-27T03:58:43.284Z,99.99
2023-06-27T03:59:43.206Z,99.99
2023-06-27T04:00:43.148Z,99.99
2023-06-27T04:01:43.088Z,99.99
2023-06-27T04:02:42.991Z,99.99
2023-06-27T04:03:42.993Z,99.99
2023-06-27T04:04:42.922Z,99.99
2023-06-27T04:05:43.089Z,99.99
2023-06-27T04:06:42.874Z,99.99
2023-06-27T04:07:42.582Z,99.99
2023-06-27T04:08:42.551Z,99.99
2023-06-27T04:09:42.424Z,99.99
2023-06-27T04:10:42.345Z,99.99
2023-06-27T04:11:42.264Z,99.99
2023-06-27T04:12:42.183Z,99.99
2023-06-27T04:13:42.124Z,99.99
2023-06-27T04:14:42.279Z,99.99
2023-06-27T04:15:42.552Z,99.99
2023-06-27T04:16:41.994Z,99.99
2023-06-27T04:17:42.024Z,99.99
2023-06-27T04:18:41.719Z,99.99
2023-06-27T04:19:41.644Z,99.99
2023-06-27T04:20:41.568Z,99.99
2023-06-27T04:21:41.483Z,99.99
2023-06-27T04:22:41.414Z,99.99
2023-06-27T04:23:41.340Z,99.99
2023-06-27T04:24:41.253Z,99.99
2023-06-27T04:25:41.427Z,99.99
2023-06-27T04:26:41.091Z,99.99
2023-06-27T04:27:41.013Z,99.99
2023-06-27T04:28:40.938Z,99.99
2023-06-27T04:29:40.860Z,99.99
2023-06-27T04:30:40.786Z,99.99
2023-06-27T04:31:40.777Z,99.99
2023-06-27T04:32:40.682Z,99.99
2023-06-27T04:33:43.761Z,99.99
2023-06-27T04:36:40.662Z,99.99
2023-06-27T04:37:40.245Z,99.99
2023-06-27T04:38:40.159Z,99.99
2023-06-27T04:39:40.119Z,99.99
2023-06-27T04:40:40.448Z,99.99
2023-06-27T04:43:40.926Z,99.99
2023-06-27T04:46:39.774Z,99.99
2023-06-27T04:51:39.522Z,99.99
2023-06-27T04:55:39.915Z,99.99
2023-06-27T05:00:38.488Z,99.99
2023-06-27T05:01:38.378Z,99.99
2023-06-27T05:02:48.810Z,99.99
2023-06-27T05:03:39.512Z,99.99
2023-06-27T05:04:38.161Z,99.99
2023-06-27T05:05:38.261Z,99.99
2023-06-27T05:06:37.988Z,99.99
2023-06-27T05:07:37.935Z,99.99
2023-06-27T05:08:37.834Z,99.99
2023-06-27T05:09:37.760Z,99.99
2023-06-27T05:10:37.690Z,99.99
2023-06-27T05:11:37.693Z,99.99
2023-06-27T05:12:37.578Z,99.99
2023-06-27T05:13:38.299Z,99.99
2023-06-27T05:14:37.617Z,99.99
2023-06-27T05:15:37.536Z,99.99
2023-06-27T05:16:38.164Z,99.99
2023-06-27T05:17:37.510Z,99.99
2023-06-27T05:18:37.068Z,99.99
2023-06-27T05:19:37.195Z,99.99
2023-06-27T05:20:36.961Z,99.99
2023-06-27T05:22:36.761Z,99.99
2023-06-27T05:23:36.705Z,99.99
2023-06-27T05:24:36.606Z,99.99
2023-06-27T05:25:36.532Z,99.99
2023-06-27T05:26:36.463Z,99.99
2023-06-27T05:27:36.375Z,99.99
2023-06-27T05:28:36.302Z,99.99
2023-06-27T05:29:36.533Z,99.99
2023-06-27T05:30:36.207Z,99.99
2023-06-27T05:31:36.070Z,99.99
2023-06-27T05:32:36.466Z,99.99
2023-06-27T05:33:36.370Z,99.99
2023-06-27T05:34:36.046Z,99.99
2023-06-27T05:35:35.769Z,99.99
2023-06-27T05:36:35.691Z,99.99
2023-06-27T05:37:35.627Z,99.99
2023-06-27T05:38:35.540Z,99.99
2023-06-27T05:39:35.492Z,99.99
2023-06-27T05:40:35.396Z,99.99
2023-06-27T05:41:35.312Z,99.99
2023-06-27T05:42:35.246Z,99.99
2023-06-27T05:43:35.164Z,99.99
2023-06-27T05:44:35.238Z,99.99
2023-06-27T05:45:35.024Z,99.99
2023-06-27T05:46:34.934Z,99.99
2023-06-27T05:47:34.921Z,99.99
2023-06-27T05:48:34.783Z,99.99
2023-06-27T05:49:34.711Z,99.99
2023-06-27T05:50:34.808Z,99.99
2023-06-27T05:51:34.557Z,99.99
2023-06-27T05:52:34.488Z,99.99
2023-06-27T05:53:34.402Z,99.99
2023-06-27T05:54:34.568Z,99.99
2023-06-27T05:56:34.412Z,99.99
2023-06-27T05:57:34.141Z,99.99
2023-06-27T05:58:34.058Z,99.99
2023-06-27T06:00:33.926Z,99.99
2023-06-27T06:01:34.330Z,99.99
2023-06-27T06:03:34.988Z,99.99
2023-06-27T06:06:33.426Z,99.99
2023-06-27T06:07:33.455Z,99.99
2023-06-27T06:08:33.460Z,99.99
2023-06-27T06:15:32.897Z,94.78
2023-06-27T06:25:52.812Z,94.93
2023-06-27T06:26:52.689Z,94.26
2023-06-27T06:27:52.606Z,88.59
2023-06-27T06:34:52.427Z,91.08
2023-06-27T06:35:52.140Z,91.47
2023-06-27T06:36:51.961Z,92.52
2023-06-27T06:37:51.914Z,92.14
2023-06-27T06:38:51.784Z,92.29
2023-06-27T06:39:51.856Z,91.42
2023-06-27T06:40:51.634Z,90.65
2023-06-27T06:41:51.563Z,89.69
2023-06-27T06:42:51.487Z,89.88
2023-06-27T06:43:51.432Z,88.82
2023-06-27T06:44:51.343Z,86.99
2023-06-27T06:45:51.301Z,86.71
2023-06-27T06:46:51.192Z,87.57
2023-06-27T06:47:51.188Z,86.80
2023-06-27T06:55:50.612Z,86.27
2023-06-27T06:56:50.458Z,85.75
2023-06-27T06:57:50.367Z,83.73
2023-06-27T06:58:50.320Z,82.19
2023-06-27T06:59:50.224Z,82.86
2023-06-27T07:00:50.271Z,82.96
2023-06-27T07:01:50.124Z,82.38
2023-06-27T07:02:50.058Z,82.48
2023-06-27T07:03:49.928Z,83.34
2023-06-27T07:04:49.950Z,83.34
2023-06-27T07:05:49.780Z,83.34
2023-06-27T07:06:49.877Z,83.83
2023-06-27T07:07:49.629Z,84.21
2023-06-27T07:08:49.573Z,83.25
2023-06-27T07:09:49.483Z,84.59
2023-06-27T07:10:49.411Z,85.17
2023-06-27T07:11:49.368Z,86.56
2023-06-27T07:12:49.260Z,85.40
2023-06-27T07:13:49.188Z,84.54
2023-06-27T07:14:49.111Z,82.81
2023-06-27T07:15:49.039Z,83.39
2023-06-27T07:16:48.967Z,83.25
2023-06-27T07:17:49.017Z,83.34
2023-06-27T07:18:48.820Z,84.11
2023-06-27T07:19:48.741Z,85.36
2023-06-27T07:20:48.675Z,85.17
2023-06-27T07:21:48.595Z,85.11
2023-06-27T07:22:48.534Z,86.56
2023-06-27T07:23:48.454Z,84.83
2023-06-27T07:24:48.378Z,84.63
2023-06-27T07:25:48.297Z,83.42
2023-06-27T07:26:48.237Z,83.23
2023-06-27T07:27:48.470Z,82.42
2023-06-27T07:28:48.084Z,82.61
2023-06-27T07:29:48.017Z,83.09
2023-06-27T07:30:48.403Z,83.77
2023-06-27T07:31:47.861Z,82.04
2023-06-27T07:32:47.815Z,82.81
2023-06-27T07:33:47.713Z,83.48
2023-06-27T07:34:47.639Z,83.09
2023-06-27T07:35:47.563Z,82.46
2023-06-27T07:36:47.487Z,81.88
2023-06-27T07:37:47.452Z,80.44
2023-06-27T07:38:47.338Z,80.79
2023-06-27T07:39:47.264Z,80.83
2023-06-27T07:40:47.237Z,81.30
2023-06-27T07:41:47.125Z,79.58
2023-06-27T07:42:47.041Z,78.23
2023-06-27T07:43:46.986Z,77.71
2023-06-27T07:44:47.038Z,79.25
2023-06-27T07:45:46.820Z,79.73
2023-06-27T07:46:47.436Z,79.96
2023-06-27T07:47:46.700Z,80.54
2023-06-27T07:48:46.598Z,80.25
2023-06-27T07:49:46.518Z,80.63
2023-06-27T07:50:46.485Z,78.27
2023-06-27T07:51:46.381Z,79.03
2023-06-27T07:52:46.302Z,79.75
2023-06-27T07:53:46.265Z,80.23
2023-06-27T07:54:46.158Z,78.50
2023-06-27T07:55:46.080Z,78.21
2023-06-27T07:56:46.008Z,78.21
2023-06-27T07:57:45.983Z,77.15
2023-06-27T07:58:45.866Z,76.25
2023-06-27T07:59:45.810Z,77.98
2023-06-27T08:00:45.712Z,77.78
2023-06-27T08:01:45.747Z,78.27
2023-06-27T08:02:45.668Z,78.36
2023-06-27T08:03:45.584Z,77.78
2023-06-27T08:04:45.762Z,79.23
2023-06-27T08:05:45.402Z,78.56
2023-06-27T08:07:45.282Z,79.56
2023-06-27T08:08:45.392Z,78.59
2023-06-27T08:09:45.083Z,78.02
2023-06-27T08:10:45.009Z,76.96
2023-06-27T08:11:44.944Z,77.01
2023-06-27T08:12:44.829Z,77.88
2023-06-27T08:13:44.804Z,79.52
2023-06-27T08:14:44.718Z,80.04
2023-06-27T08:15:44.876Z,78.69
2023-06-27T08:17:44.586Z,76.96
2023-06-27T08:18:44.474Z,77.34
2023-06-27T08:20:44.487Z,78.25
2023-06-27T08:21:44.201Z,78.44
2023-06-27T08:23:44.051Z,76.61
2023-06-27T08:24:43.984Z,77.81
2023-06-27T08:25:43.958Z,76.45
2023-06-27T08:26:43.832Z,77.51
2023-06-27T08:27:43.761Z,77.61
2023-06-27T08:29:43.579Z,76.07
2023-06-27T08:30:43.775Z,76.65
2023-06-27T08:31:43.625Z,75.88
2023-06-27T08:32:43.415Z,75.30
2023-06-27T08:33:43.371Z,75.45
2023-06-27T08:34:43.449Z,76.45
2023-06-27T08:35:43.185Z,74.49
2023-06-27T08:36:43.830Z,76.03
2023-06-27T08:37:43.029Z,75.65
2023-06-27T08:38:42.959Z,74.97
2023-06-27T08:39:42.881Z,74.78
2023-06-27T08:40:42.981Z,75.65
2023-06-27T08:41:42.734Z,75.93
2023-06-27T08:43:42.589Z,74.52
2023-06-27T08:44:42.720Z,74.88
2023-06-27T08:46:42.373Z,75.49
2023-06-27T08:47:42.352Z,72.60
2023-06-27T08:48:42.635Z,69.23
2023-06-27T08:49:43.358Z,68.80
2023-06-27T08:50:42.590Z,69.57
2023-06-27T08:51:42.015Z,70.57
2023-06-27T09:00:41.570Z,69.45
2023-06-27T09:01:41.277Z,69.55
2023-06-27T09:02:41.240Z,70.67
2023-06-27T09:03:41.445Z,71.73
2023-06-27T09:04:41.038Z,72.12
2023-06-27T09:05:40.960Z,72.34
2023-06-27T09:06:40.886Z,71.58
2023-06-27T09:07:40.820Z,70.22
2023-06-27T09:08:40.756Z,70.22
2023-06-27T09:09:40.769Z,70.90
2023-06-27T09:10:40.774Z,70.70
2023-06-27T09:11:40.524Z,70.06
2023-06-27T09:12:40.454Z,70.84
2023-06-27T09:13:40.582Z,69.55
2023-06-27T09:14:40.346Z,69.58
2023-06-27T09:15:40.877Z,70.54
2023-06-27T09:16:40.242Z,67.94
2023-06-27T09:17:40.201Z,68.26
2023-06-27T09:18:40.334Z,68.88
2023-06-27T09:19:39.974Z,68.84
2023-06-27T09:20:40.305Z,68.65
2023-06-27T09:21:39.808Z,68.36
2023-06-27T09:22:42.144Z,68.43
2023-06-27T09:23:40.002Z,69.20
2023-06-27T09:24:39.782Z,67.46
2023-06-27T09:25:40.074Z,68.43
2023-06-27T09:26:39.701Z,68.59
2023-06-27T09:27:39.363Z,70.36
2023-06-27T09:28:39.329Z,69.07
2023-06-27T09:29:40.870Z,68.68
2023-06-27T09:30:39.368Z,68.26
2023-06-27T09:31:39.288Z,69.13
2023-06-27T09:32:39.124Z,69.55
2023-06-27T09:33:43.108Z,68.59
2023-06-27T09:34:38.902Z,67.85
2023-06-27T09:39:38.878Z,59.93
2023-06-27T09:40:38.492Z,59.45
2023-06-27T09:41:38.595Z,59.19
2023-06-27T09:42:38.277Z,58.22
2023-06-27T09:43:38.747Z,58.12
2023-06-27T09:44:38.622Z,59.19
2023-06-27T09:46:37.987Z,59.48
2023-06-27T09:47:38.029Z,60.67
2023-06-27T09:48:37.877Z,61.25
2023-06-27T09:49:37.970Z,60.38
2023-06-27T09:50:37.740Z,59.99
2023-06-27T09:51:37.661Z,59.58
2023-06-27T09:52:37.755Z,59.02
2023-06-27T09:53:37.525Z,59.41
2023-06-27T09:54:37.457Z,59.51
2023-06-27T09:55:37.338Z,59.28
2023-06-27T09:56:37.301Z,59.67
2023-06-27T09:57:37.191Z,59.48
2023-06-27T09:58:37.362Z,60.06
2023-06-27T09:59:37.056Z,60.25
2023-06-27T10:00:37.011Z,60.54
2023-06-27T10:02:37.244Z,61.63
2023-06-27T10:03:37.039Z,62.21
2023-06-27T10:04:40.401Z,62.98
2023-06-27T10:05:39.771Z,62.82
2023-06-27T10:06:36.604Z,61.25
2023-06-27T10:07:36.604Z,61.15
2023-06-27T10:08:36.399Z,60.83
2023-06-27T10:09:36.330Z,62.08
2023-06-27T10:10:36.264Z,62.57
2023-06-27T10:11:36.826Z,62.76
2023-06-27T10:12:36.118Z,63.05
2023-06-27T10:13:36.044Z,62.44
2023-06-27T10:14:35.976Z,63.53
2023-06-27T10:38:34.363Z,62.34
2023-06-27T10:39:34.188Z,60.79
2023-06-27T10:40:36.716Z,60.79
2023-06-27T10:41:34.021Z,61.47
2023-06-27T10:51:03.861Z,60.21
2023-06-27T10:59:41.349Z,60.34
2023-06-27T11:00:38.637Z,59.08
2023-06-27T11:01:38.637Z,59.92
2023-06-27T11:02:38.640Z,59.95
2023-06-27T11:03:41.314Z,61.11
2023-06-27T11:04:38.522Z,60.95
2023-06-27T11:05:38.320Z,59.59
2023-06-27T11:11:03.755Z,60.05
2023-06-27T11:12:03.651Z,61.05
2023-06-27T11:14:04.115Z,61.33
2023-06-27T11:15:03.474Z,61.95
2023-06-27T11:16:03.527Z,60.40
2023-06-27T11:19:04.103Z,59.53
2023-06-27T11:20:03.086Z,59.05
2023-06-27T11:21:03.041Z,58.24
2023-06-27T11:22:02.938Z,58.70
2023-06-27T11:23:02.872Z,58.89
2023-06-27T11:24:02.797Z,59.38
2023-06-27T11:25:02.784Z,59.08
2023-06-27T11:26:02.663Z,58.95
2023-06-27T11:27:02.591Z,60.11
2023-06-27T11:28:02.516Z,59.53
2023-06-27T11:29:02.452Z,59.83
2023-06-27T11:30:05.058Z,60.02
2023-06-27T11:31:02.350Z,59.76
2023-06-27T11:32:02.396Z,60.24
2023-06-27T11:33:02.198Z,60.27
2023-06-27T11:34:02.104Z,58.92
2023-06-27T11:44:30.364Z,59.14
2023-06-27T11:45:30.307Z,59.23
2023-06-27T11:47:12.786Z,59.53
2023-06-27T11:48:12.651Z,59.14
2023-06-27T11:49:12.647Z,59.07
2023-06-27T11:50:12.641Z,57.71
2023-06-27T11:51:12.441Z,57.81
2023-06-27T11:52:12.368Z,57.98
2023-06-27T11:53:12.299Z,58.59
2023-06-27T11:54:12.237Z,59.75
2023-06-27T11:55:16.197Z,58.52
2023-06-27T11:58:39.546Z,59.74
2023-06-27T11:59:39.476Z,57.06
2023-06-27T12:00:39.491Z,55.96
2023-06-27T12:02:39.353Z,56.41
2023-06-27T12:03:39.230Z,57.70
2023-06-27T12:04:39.139Z,56.35
2023-06-27T12:05:39.873Z,56.25
2023-06-27T12:06:38.999Z,55.54
2023-06-27T12:07:39.124Z,55.67
2023-06-27T12:08:38.867Z,56.23
2023-06-27T12:09:38.794Z,56.59
2023-06-27T12:13:04.439Z,56.81
2023-06-27T12:14:04.331Z,56.74
2023-06-27T12:15:04.260Z,56.35
2023-06-27T12:16:04.200Z,55.53
2023-06-27T12:17:04.134Z,54.56
2023-06-27T12:18:04.169Z,53.88
2023-06-27T12:19:03.992Z,53.95
2023-06-27T12:20:03.934Z,54.56
2023-06-27T12:21:03.864Z,55.55
2023-06-27T12:24:03.756Z,53.13
2023-06-27T12:26:03.593Z,52.94
2023-06-27T12:27:11.963Z,53.37
2023-06-27T12:28:03.421Z,54.21
2023-06-27T12:29:03.349Z,53.63
2023-06-27T12:30:03.273Z,54.48
2023-06-27T12:31:03.278Z,55.54
2023-06-27T12:32:03.163Z,56.20
2023-06-27T12:33:03.207Z,56.49
2023-06-27T12:35:03.001Z,57.62
2023-06-27T12:36:02.888Z,57.01
2023-06-27T12:37:02.811Z,57.98
2023-06-27T12:38:02.753Z,59.14
2023-06-27T12:39:02.736Z,57.98
2023-06-27T12:42:35.074Z,56.75
2023-06-27T12:43:35.007Z,55.54
2023-06-27T12:44:34.941Z,55.28
2023-06-27T12:45:38.657Z,54.05
2023-06-27T12:46:34.819Z,54.56
2023-06-27T12:47:35.764Z,54.66
2023-06-27T12:48:34.674Z,54.56
2023-06-27T12:49:34.602Z,54.27
2023-06-27T12:50:34.754Z,54.21
2023-06-27T12:51:34.463Z,55.54
2023-06-27T12:52:34.399Z,56.49
2023-06-27T12:53:34.332Z,56.56
2023-06-27T12:54:34.298Z,56.87
2023-06-27T12:55:34.198Z,57.87
2023-06-27T12:56:34.229Z,56.03
2023-06-27T12:57:34.063Z,56.83
2023-06-27T12:58:34.005Z,56.23
2023-06-27T12:59:33.929Z,56.68
2023-06-27T13:00:36.567Z,57.03
2023-06-27T13:01:33.870Z,55.08
2023-06-27T13:02:35.912Z,54.31
2023-06-27T13:03:33.765Z,54.92
2023-06-27T13:04:33.597Z,54.05
2023-06-27T13:05:33.522Z,53.49
2023-06-27T13:06:33.492Z,53.39
2023-06-27T13:07:33.515Z,52.20
2023-06-27T13:08:33.784Z,52.37
2023-06-27T13:09:33.278Z,52.44
2023-06-27T13:10:33.264Z,52.76
2023-06-27T13:11:33.122Z,52.13
2023-06-27T13:12:33.050Z,51.93
2023-06-27T13:13:34.781Z,51.35
2023-06-27T13:14:32.917Z,50.74
2023-06-27T13:15:41.041Z,51.11
2023-06-27T13:16:32.847Z,52.34
2023-06-27T13:17:32.733Z,52.15
2023-06-27T13:18:32.661Z,52.61
2023-06-27T13:19:32.585Z,52.66
2023-06-27T13:20:32.773Z,53.72
2023-06-27T13:21:32.453Z,54.88
2023-06-27T13:22:32.421Z,54.21
2023-06-27T13:23:32.316Z,54.79
2023-06-27T13:24:32.254Z,55.17
2023-06-27T13:25:32.180Z,56.34
2023-06-27T13:26:32.124Z,54.26
2023-06-27T13:27:32.046Z,54.21
2023-06-27T13:28:32.002Z,53.75
2023-06-27T13:29:31.909Z,52.94
2023-06-27T13:30:31.885Z,52.23
2023-06-27T13:32:39.573Z,47.80
2023-06-27T13:33:39.239Z,47.80
2023-06-27T13:34:39.165Z,46.98
2023-06-27T13:35:39.086Z,48.75
2023-06-27T13:36:39.021Z,50.38
2023-06-27T13:37:52.136Z,50.63
2023-06-27T13:42:24.553Z,46.05
2023-06-27T13:48:06.794Z,45.45
2023-06-27T13:49:06.630Z,46.23
2023-06-27T14:01:55.078Z,46.32
2023-06-27T14:02:55.096Z,45.62
2023-06-27T14:07:01.137Z,45.32
2023-06-27T14:08:00.615Z,45.04
2023-06-27T14:09:00.512Z,45.35
2023-06-27T14:10:00.455Z,45.47
2023-06-27T14:11:00.390Z,45.61
2023-06-27T14:12:00.742Z,44.44
2023-06-27T14:13:00.258Z,43.47
2023-06-27T14:14:00.197Z,43.98
2023-06-27T14:15:00.180Z,44.09
2023-06-27T14:16:00.292Z,44.04
2023-06-27T14:17:00.044Z,42.65
2023-06-27T14:18:00.222Z,41.87
2023-06-27T14:24:56.936Z,41.67
2023-06-27T14:25:56.879Z,41.75
2023-06-27T14:26:56.826Z,41.50
2023-06-27T14:27:56.758Z,43.13
2023-06-27T14:28:56.696Z,43.09
2023-06-27T14:29:56.634Z,44.49
2023-06-27T14:30:56.620Z,44.64
2023-06-27T14:31:56.519Z,43.41
2023-06-27T14:32:56.591Z,41.95
2023-06-27T14:33:56.392Z,41.38
2023-06-27T14:34:56.328Z,40.80
2023-06-27T14:35:56.265Z,41.19
2023-06-27T14:36:56.208Z,41.48
2023-06-27T14:37:56.229Z,41.25
2023-06-27T14:38:56.156Z,41.22
2023-06-27T14:39:56.146Z,42.22
2023-06-27T14:40:55.961Z,41.58
2023-06-27T14:41:55.904Z,41.67
2023-06-27T14:42:55.841Z,41.31
2023-06-27T14:43:55.780Z,40.82
2023-06-27T14:44:55.761Z,40.99
2023-06-27T14:45:55.658Z,41.17
2023-06-27T14:46:55.600Z,42.32
2023-06-27T14:47:55.644Z,43.15
2023-06-27T14:48:55.515Z,43.70
2023-06-27T14:49:56.235Z,44.74
2023-06-27T14:50:55.351Z,44.60
2023-06-27T14:51:55.307Z,45.34
2023-06-27T14:52:55.228Z,46.31
2023-06-27T14:53:55.167Z,47.38
2023-06-27T14:54:55.101Z,46.98
2023-06-27T14:55:55.038Z,46.41
2023-06-27T15:00:54.745Z,46.45
2023-06-27T15:01:54.657Z,47.40
2023-06-27T15:02:54.656Z,47.69
2023-06-27T15:03:54.675Z,47.66
2023-06-27T15:04:54.476Z,48.25
2023-06-27T15:05:54.393Z,48.05
2023-06-27T15:06:54.338Z,47.47
2023-06-27T15:07:54.650Z,47.64
2023-06-27T15:08:54.195Z,48.88
2023-06-27T15:09:54.430Z,48.78
2023-06-27T15:10:54.135Z,48.61
2023-06-27T15:11:53.996Z,48.80
2023-06-27T15:18:47.673Z,50.26
2023-06-27T15:19:45.877Z,50.94
2023-06-27T15:20:45.827Z,50.99
2023-06-27T15:22:45.675Z,50.12
2023-06-27T15:23:45.629Z,49.51
2023-06-27T15:24:45.890Z,50.09
2023-06-27T15:25:45.513Z,50.84
2023-06-27T15:26:45.445Z,50.46
2023-06-27T15:27:45.340Z,50.92
2023-06-27T15:28:45.272Z,50.82
2023-06-27T15:29:45.237Z,50.65
2023-06-27T15:30:45.294Z,50.82
2023-06-27T15:31:45.080Z,51.79
2023-06-27T15:32:46.426Z,51.09
2023-06-27T15:33:44.931Z,52.34
2023-06-27T15:34:45.120Z,52.76
2023-06-27T15:37:09.809Z,51.16
2023-06-27T15:38:09.708Z,52.12
2023-06-27T15:39:10.088Z,52.51
2023-06-27T15:40:09.777Z,52.42
2023-06-27T15:41:12.561Z,52.03
2023-06-27T15:42:09.641Z,52.71
2023-06-27T15:43:11.239Z,53.00
2023-06-27T15:44:09.496Z,52.90
2023-06-27T15:45:09.227Z,53.00
2023-06-27T15:46:09.157Z,52.90
2023-06-27T15:48:09.146Z,53.39
2023-06-27T15:50:08.906Z,52.61
2023-06-27T15:51:12.239Z,53.29
2023-06-27T15:52:08.741Z,52.61
2023-06-27T15:53:08.695Z,53.39
2023-06-27T15:56:08.473Z,52.34
2023-06-27T15:57:08.417Z,52.25
2023-06-27T15:58:08.338Z,52.06
2023-06-27T15:59:08.256Z,52.64
2023-06-27T16:00:08.193Z,52.42
2023-06-27T16:01:08.117Z,52.90
2023-06-27T16:02:08.056Z,52.80
2023-06-27T16:03:08.119Z,53.19
2023-06-27T16:04:08.103Z,53.49
2023-06-27T16:05:08.533Z,54.52
2023-06-27T16:06:07.768Z,53.85
2023-06-27T16:07:07.814Z,54.91
2023-06-27T16:08:07.636Z,54.33
2023-06-27T16:09:07.751Z,54.23
2023-06-27T16:10:07.758Z,55.40
2023-06-27T16:11:09.350Z,54.52
2023-06-27T16:16:07.081Z,53.36
2023-06-27T16:17:07.065Z,53.75
2023-06-27T16:21:06.721Z,54.69
2023-06-27T16:22:06.662Z,54.98
2023-06-27T16:25:06.464Z,55.36
2023-06-27T16:26:48.968Z,56.04
2023-06-27T16:27:48.896Z,55.85
2023-06-27T16:28:48.819Z,57.30
2023-06-27T16:29:48.796Z,57.88
2023-06-27T16:30:48.932Z,56.14
2023-06-27T16:31:49.113Z,55.94
2023-06-27T16:32:52.444Z,56.02
2023-06-27T16:34:35.986Z,56.24
2023-06-27T16:36:48.398Z,56.79
2023-06-27T16:37:48.335Z,57.46
2023-06-27T16:38:48.249Z,57.95
2023-06-27T16:39:48.227Z,57.28
2023-06-27T16:40:48.171Z,57.95
2023-06-27T16:42:48.003Z,57.37
2023-06-27T16:43:47.899Z,57.56
2023-06-27T16:44:47.876Z,57.37
2023-06-27T16:46:47.682Z,57.66
2023-06-27T16:47:47.627Z,57.37
2023-06-27T16:48:49.805Z,58.04
2023-06-27T16:49:47.519Z,59.31
2023-06-27T16:50:47.401Z,57.95
2023-06-27T16:51:47.331Z,58.04
2023-06-27T16:52:47.263Z,58.72
2023-06-27T16:53:47.222Z,58.63
2023-06-27T16:54:47.121Z,58.75
2023-06-27T16:55:50.011Z,59.43
2023-06-27T16:56:46.997Z,58.07
2023-06-27T16:57:46.909Z,59.05
2023-06-27T16:58:49.457Z,57.98
2023-06-27T16:59:46.764Z,57.88
2023-06-27T17:00:46.690Z,57.28
2023-06-27T17:01:50.704Z,57.86